Trier-petrisberg, Germany

11:01 PM CEST on March 30, 2017 (GMT +0200)
Am Wissenschaftspark | | Change Station

Elev 849 ft 49.76 °N, 6.67 °E | Updated 3 minutes ago

Overcast
Overcast
61.2 °F
Feels Like 61.2 °F
N
0.6
Wind Variable Wind from South
Gusts 1.2 mph

Today
High -- | Low -- °F
--% Chance of Precip.
Yesterday
High -- | Low -- °F
Precip. -- in
Pressure 30.15 in
Visibility 6.2 miles
Clouds Clear
Dew Point 44 °F
Humidity 52%
Rainfall 0.00 in
Snow Depth Not available.
7:14 AM 8:01 PM
Waxing Crescent, 10% visible
METAR ETAD 302058Z AUTO 08004KT 9999 CLR 13/06 A3018 RMK AO2 SLP208 T01310062 58003 TSNO $
Pressure 30.15 in
Visibility 6.2 miles
Clouds Clear
Dew Point 44 °F
Humidity 52%
Rainfall 0.00 in
Snow Depth Not available.
7:14 AM 8:01 PM
Waxing Crescent, 10% visible
METAR ETAD 302058Z AUTO 08004KT 9999 CLR 13/06 A3018 RMK AO2 SLP208 T01310062 58003 TSNO $

Get Severe Weather Alerts

Thanks for signing up!

Be on the lookout for a verification email in your inbox.

You'll start receiving the daily forecast at 8 AM.

×

10-Day Weather Forecast

×

Almanac

Astronomy

Mar. 30, 2017 Rise Set
Actual Time
Civil Twilight
Nautical Twilight
Astronomical Twilight
Moon
Length of Visible Light
Length of Day
Tomorrow will be .
, % of the Moon is Illuminated

Today's Extremes

Country Highs Country Lows

Community

WunderPhotos

Upload Photos

1,962,540 photos uploaded!

WunderBlog® & News

Nearby

Air Quality

  Air Quality AQ Index Pollutant
Not available.

Snow Depth

Station Depth Elevation

Earthquake Activity

City Distance Mag. Time & Date
Minimum magnitude displayed is 2.5.

Earthquake Activity

City Distance Mag. Time & Date
Minimum magnitude displayed is 2.5.

Coastal Water Temperatures

Place Temperature

Stations

Nearby Weather Stations

Station Location Temp. Windchill Dew Point Humidity Wind Precip. Elev Updated Type